.
WxDataArchive / Data Records for 2006-04-12
2006-04-11 April 2006 2006-04-13

Data Records for Wednesday, 12 April 2006

Time	Temp	Chill	HIndex	Humid	Dewpt	 Wind 	HiWind	WindDir	Rain 	Barom 
-----	----	-----	------	-----	-----	------	------	-------	-----	----- 
00:00	64.2	64.2	64.2	51	45.7	1	3	90	0.00	29.989 
00:05	64.0	64.0	64.0	51	45.5	1	4	112	0.00	29.989 
00:10	63.7	63.7	63.7	52	45.7	1	3	112	0.00	29.989 
00:15	63.4	63.4	63.4	53	46.0	1	3	112	0.00	29.983 
00:20	63.2	63.2	63.2	54	46.3	1	3	90	0.00	29.983 
00:25	62.9	62.9	62.9	54	46.0	0	2	90	0.00	29.983 
00:30	62.6	62.6	62.6	55	46.2	1	6	90	0.00	29.985 
00:35	62.6	62.6	62.6	55	46.2	1	4	270	0.00	29.985 
00:40	62.4	62.4	62.4	56	46.5	1	3	112	0.00	29.985 
00:45	62.3	62.3	62.3	57	46.9	0	4	112	0.00	29.986 
00:50	62.1	62.1	62.1	57	46.7	1	3	248	0.00	29.986 
00:55	62.0	62.0	62.0	58	47.0	0	1	248	0.00	29.986 
01:00	61.8	61.8	61.8	58	46.9	1	3	270	0.00	29.987 
01:05	61.8	61.8	61.8	57	46.4	1	2	22	0.00	29.987 
01:10	61.8	61.8	61.8	58	46.9	1	3	45	0.00	29.987 
01:15	61.6	61.6	61.6	59	47.1	1	2	45	0.00	29.989 
01:20	61.5	61.5	61.5	59	47.0	1	6	135	0.00	29.989 
01:25	61.5	61.5	61.5	59	47.0	2	5	22	0.00	29.989 
01:30	61.3	61.3	61.3	60	47.3	1	4	225	0.00	30.000 
01:35	61.2	61.2	61.2	61	47.6	1	3	248	0.00	30.000 
01:40	60.9	60.9	60.9	62	47.8	2	6	248	0.00	30.000 
01:45	60.5	60.5	60.5	64	48.3	1	3	248	0.00	30.000 
01:50	60.2	60.2	60.2	64	48.0	1	4	248	0.00	30.000 
01:55	60.1	60.1	60.1	65	48.3	1	2	338	0.00	30.000 
02:00	59.9	59.9	59.9	66	48.5	1	4	45	0.00	29.988 
02:05	59.9	59.9	59.9	65	48.1	2	4	45	0.00	29.988 
02:10	59.9	59.9	59.9	65	48.1	2	5	112	0.00	29.988 
02:15	60.1	60.1	60.1	64	47.9	2	6	90	0.00	29.982 
02:20	60.1	60.1	60.1	65	48.3	1	5	68	0.00	29.982 
02:25	60.2	60.2	60.2	64	48.0	2	7	90	0.00	29.982 
02:30	60.2	60.2	60.2	64	48.0	2	9	90	0.00	29.978 
02:35	60.4	60.4	60.4	64	48.2	2	5	270	0.00	29.978 
02:40	60.2	60.2	60.2	65	48.4	1	3	202	0.00	29.978 
02:45	60.2	60.2	60.2	65	48.4	1	3	248	0.00	29.972 
02:50	60.2	60.2	60.2	65	48.4	1	4	248	0.00	29.972 
02:55	60.1	60.1	60.1	65	48.3	1	3	68	0.00	29.972 
03:00	60.1	60.1	60.1	65	48.3	1	4	248	0.00	29.970 
03:05	60.1	60.1	60.1	65	48.3	1	3	270	0.00	29.970 
03:10	60.1	60.1	60.1	66	48.7	1	3	292	0.00	29.970 
03:15	59.9	59.9	59.9	66	48.5	1	5	270	0.00	29.965 
03:20	59.6	59.6	59.6	69	49.4	1	5	248	0.01	29.965 
03:25	59.3	59.3	59.3	70	49.5	3	7	90	0.00	29.965 
03:30	59.0	59.0	59.0	71	49.6	3	5	90	0.01	29.937 
03:35	58.7	58.7	58.7	73	50.1	3	7	112	0.01	29.937 
03:40	58.3	58.3	58.3	74	50.0	2	4	135	0.01	29.937 
03:45	58.0	58.0	58.0	75	50.1	2	6	90	0.00	29.940 
03:50	57.8	57.8	57.8	74	49.6	2	7	112	0.01	29.940 
03:55	58.0	58.0	58.0	74	49.8	3	7	90	0.00	29.940 
04:00	57.8	57.8	57.8	75	49.9	2	3	292	0.00	29.937 
04:05	57.6	57.6	57.6	73	49.0	1	4	0	0.00	29.937 
04:10	58.1	58.1	58.1	71	48.7	2	5	68	0.00	29.937 
04:15	58.6	58.6	58.6	68	48.1	2	8	248	0.00	29.942 
04:20	58.9	58.9	58.9	68	48.4	2	5	248	0.00	29.942 
04:25	59.0	59.0	59.0	67	48.1	2	9	45	0.00	29.942 
04:30	59.0	59.0	59.0	67	48.1	1	5	45	0.00	29.944 
04:35	59.2	59.2	59.2	65	47.4	3	12	90	0.00	29.944 
04:40	59.5	59.5	59.5	65	47.7	2	5	90	0.00	29.944 
04:45	59.5	59.5	59.5	65	47.7	1	4	90	0.00	29.941 
04:50	59.3	59.3	59.3	66	47.9	1	3	112	0.00	29.941 
04:55	59.3	59.3	59.3	65	47.5	1	2	112	0.00	29.941 
05:00	59.3	59.3	59.3	65	47.5	2	4	90	0.00	29.937 
05:05	59.5	59.5	59.5	64	47.3	2	4	90	0.00	29.937 
05:10	59.6	59.6	59.6	63	47.0	2	5	90	0.00	29.937 
05:15	59.8	59.8	59.8	63	47.2	2	5	90	0.00	29.930 
05:20	59.6	59.6	59.6	63	47.0	2	6	90	0.00	29.930 
05:25	59.8	59.8	59.8	63	47.2	2	5	90	0.00	29.930 
05:30	59.8	59.8	59.8	63	47.2	2	5	135	0.00	29.921 
05:35	59.8	59.8	59.8	64	47.6	1	4	0	0.00	29.921 
05:40	59.6	59.6	59.6	64	47.4	1	4	45	0.00	29.921 
05:45	59.6	59.6	59.6	64	47.4	1	3	22	0.00	29.916 
05:50	59.6	59.6	59.6	64	47.4	2	4	90	0.00	29.916 
05:55	59.6	59.6	59.6	64	47.4	1	3	90	0.00	29.916 
06:00	59.8	59.8	59.8	64	47.6	1	3	90	0.00	29.906 
06:05	59.8	59.8	59.8	64	47.6	1	3	112	0.00	29.906 
06:10	59.9	59.9	59.9	64	47.7	2	4	90	0.00	29.906 
06:15	60.1	60.1	60.1	63	47.5	2	7	45	0.00	29.906 
06:20	60.2	60.2	60.2	63	47.6	2	6	90	0.00	29.906 
06:25	60.2	60.2	60.2	62	47.1	2	5	90	0.00	29.906 
06:30	60.2	60.2	60.2	62	47.1	2	6	90	0.00	29.905 
06:35	60.4	60.4	60.4	62	47.3	2	5	90	0.00	29.905 
06:40	60.2	60.2	60.2	62	47.1	2	4	90	0.00	29.905 
06:45	60.1	60.1	60.1	61	46.6	2	5	90	0.00	29.898 
06:50	59.9	59.9	59.9	62	46.8	1	3	68	0.00	29.898 
06:55	59.9	59.9	59.9	62	46.8	2	6	90	0.00	29.898 
07:00	59.8	59.8	59.8	62	46.8	2	6	90	0.00	29.894 
07:05	59.9	59.9	59.9	62	46.8	2	5	90	0.00	29.894 
07:10	59.8	59.8	59.8	62	46.8	1	5	338	0.00	29.894 
07:15	59.8	59.8	59.8	62	46.8	1	3	338	0.00	29.892 
07:20	59.9	59.9	59.9	62	46.8	2	5	112	0.00	29.892 
07:25	60.1	60.1	60.1	62	47.0	2	5	90	0.00	29.892 
07:30	60.1	60.1	60.1	62	47.0	2	4	68	0.00	29.882 
07:35	60.1	60.1	60.1	62	47.0	1	3	338	0.00	29.882 
07:40	60.2	60.2	60.2	62	47.1	2	4	270	0.00	29.882 
07:45	60.5	60.5	60.5	62	47.4	2	7	270	0.00	29.880 
07:50	60.5	60.5	60.5	62	47.4	2	9	338	0.00	29.880 
07:55	60.5	60.5	60.5	62	47.4	2	4	270	0.00	29.880 
08:00	60.9	60.9	60.9	61	47.4	2	6	270	0.00	29.887 
08:05	61.2	61.2	61.2	61	47.6	2	4	248	0.00	29.887 
08:10	61.3	61.3	61.3	60	47.3	2	6	248	0.00	29.887 
08:15	61.6	61.6	61.6	60	47.6	2	10	248	0.00	29.892 
08:20	61.8	61.8	61.8	59	47.3	3	7	248	0.00	29.892 
08:25	62.1	62.1	62.1	59	47.6	3	9	248	0.00	29.892 
08:30	62.1	62.1	62.1	59	47.6	3	6	248	0.00	29.891 
08:35	62.1	62.1	62.1	59	47.6	2	6	270	0.00	29.891 
08:40	62.3	62.3	62.3	60	48.2	2	6	248	0.00	29.891 
08:45	62.4	62.4	62.4	60	48.3	2	5	202	0.00	29.888 
08:50	62.4	62.4	62.4	60	48.3	3	7	248	0.00	29.888 
08:55	62.6	62.6	62.6	58	47.6	3	7	248	0.00	29.888 
09:00	62.7	62.7	62.7	58	47.7	4	9	248	0.00	29.891 
09:05	62.9	62.9	62.9	59	48.3	3	13	248	0.00	29.891 
09:10	63.1	63.1	63.1	59	48.5	4	9	248	0.00	29.891 
09:15	63.1	63.1	63.1	59	48.5	3	7	248	0.00	29.888 
09:20	63.1	63.1	63.1	59	48.5	3	10	248	0.00	29.888 
09:25	63.1	63.1	63.1	60	49.0	4	9	248	0.00	29.888 
09:30	62.4	62.4	62.4	62	49.2	3	7	248	0.01	29.884 
09:35	62.3	62.3	62.3	63	49.5	6	13	248	0.00	29.884 
09:40	62.3	62.3	62.3	64	50.0	6	13	248	0.00	29.884 
09:45	62.3	62.3	62.3	64	50.0	5	15	270	0.00	29.886 
09:50	62.3	62.3	62.3	65	50.4	5	12	248	0.00	29.886 
09:55	62.1	62.1	62.1	65	50.2	4	10	248	0.00	29.886 
10:00	62.3	62.3	62.3	66	50.8	5	15	248	0.00	29.875 
10:05	62.9	62.9	62.9	66	51.4	5	13	248	0.00	29.875 
10:10	63.4	63.4	63.4	65	51.4	4	11	248	0.00	29.875 
10:15	63.7	63.7	63.7	66	52.1	5	12	248	0.00	29.863 
10:20	63.5	63.5	63.5	67	52.3	4	11	248	0.00	29.863 
10:25	63.5	63.5	63.5	66	51.9	4	10	248	0.00	29.863 
10:30	63.5	63.5	63.5	65	51.5	4	12	248	0.00	29.860 
10:35	63.7	63.7	63.7	65	51.7	4	12	248	0.00	29.860 
10:40	64.5	64.5	64.5	65	52.5	4	14	248	0.00	29.860 
10:45	65.3	65.3	65.3	64	52.8	5	15	248	0.00	29.855 
10:50	66.1	66.1	66.1	61	52.3	6	13	248	0.00	29.855 
10:55	66.6	66.6	66.6	61	52.7	6	12	270	0.00	29.855 
11:00	66.8	66.8	66.8	60	52.5	7	13	248	0.00	29.848 
11:05	66.6	66.6	66.6	61	52.7	7	17	270	0.00	29.848 
11:10	66.9	66.9	66.9	59	52.1	10	20	248	0.00	29.848 
11:15	67.4	67.4	67.4	59	52.6	9	18	248	0.00	29.856 
11:20	67.8	67.8	67.8	58	52.5	10	21	248	0.00	29.856 
11:25	67.9	67.9	67.9	59	53.0	8	18	270	0.00	29.856 
11:30	68.4	68.4	68.4	58	53.0	8	18	270	0.00	29.848 
11:35	68.9	68.9	68.9	59	54.0	9	21	270	0.00	29.848 
11:40	69.3	69.3	69.3	57	53.4	9	19	270	0.00	29.848 
11:45	69.9	69.9	69.9	58	54.4	8	17	270	0.00	29.845 
11:50	69.9	69.9	69.9	57	54.0	8	16	270	0.00	29.845 
11:55	69.8	69.8	69.8	57	53.9	8	17	248	0.00	29.845 
12:00	69.3	69.3	69.3	57	53.4	7	18	270	0.00	29.842 
12:05	68.9	68.9	68.9	58	53.5	9	21	270	0.00	29.842 
12:10	69.1	69.1	69.1	57	53.2	8	16	248	0.00	29.842 
12:15	69.3	69.3	69.3	57	53.4	9	16	270	0.00	29.844 
12:20	69.9	69.9	69.9	56	53.5	10	20	270	0.00	29.844 
12:25	70.4	70.4	70.4	55	53.4	8	17	248	0.00	29.844 
12:30	69.9	69.9	69.9	57	54.0	8	16	270	0.00	29.842 
12:35	69.8	69.8	69.8	57	53.9	9	20	248	0.00	29.842 
12:40	69.6	69.6	69.6	57	53.7	12	22	270	0.00	29.842 
12:45	69.6	69.6	69.6	57	53.7	8	22	270	0.00	29.840 
12:50	70.3	70.3	70.3	58	54.8	6	12	248	0.00	29.840 
12:55	71.1	71.1	71.1	58	55.6	6	15	270	0.00	29.840 
13:00	72.1	72.1	72.1	54	54.5	7	15	270	0.00	29.829 
13:05	72.1	72.1	72.1	54	54.5	8	17	270	0.00	29.829 
13:10	72.0	72.0	72.0	54	54.4	9	20	270	0.00	29.829 
13:15	72.1	72.1	72.1	53	54.0	11	18	270	0.00	29.828 
13:20	72.8	72.8	72.8	53	54.7	9	20	248	0.00	29.828 
13:25	73.3	73.3	73.3	50	53.5	11	20	270	0.00	29.828 
13:30	73.0	73.0	73.0	51	53.8	8	17	270	0.00	29.839 
13:35	73.2	73.2	73.2	52	54.5	11	22	270	0.00	29.839 
13:40	73.0	73.0	73.0	51	53.8	10	19	248	0.00	29.839 
13:45	72.5	72.5	72.5	52	53.9	10	23	248	0.00	29.843 
13:50	72.7	72.7	72.7	51	53.5	10	24	248	0.00	29.843 
13:55	72.5	72.5	72.5	51	53.3	11	24	270	0.00	29.843 
14:00	73.0	73.0	73.0	50	53.2	9	23	270	0.00	29.842 
14:05	73.2	73.2	73.2	51	54.0	8	21	270	0.00	29.842 
14:10	73.3	73.3	73.3	52	54.6	7	16	270	0.00	29.842 
14:15	74.4	74.4	74.4	51	55.1	7	17	270	0.00	29.843 
14:20	74.7	74.7	74.7	49	54.3	9	22	270	0.00	29.843 
14:25	74.9	74.9	74.9	49	54.4	11	25	270	0.00	29.843 
14:30	75.4	75.4	77.8	47	53.7	9	21	248	0.00	29.851 
14:35	75.4	75.4	77.7	44	52.0	11	22	270	0.00	29.851 
14:40	75.1	75.1	77.6	45	52.3	12	23	270	0.00	29.851 
14:45	75.6	75.6	77.8	46	53.3	8	17	270	0.00	29.857 
14:50	75.8	75.8	77.8	42	51.1	10	22	270	0.00	29.857 
14:55	76.1	76.1	77.9	41	50.7	10	23	270	0.00	29.857 
15:00	76.0	76.0	77.9	41	50.6	9	19	270	0.00	29.869 
15:05	75.1	75.1	77.6	42	50.4	10	24	270	0.00	29.869 
15:10	74.6	74.6	74.6	45	51.8	7	17	270	0.00	29.869 
15:15	73.9	73.9	73.9	44	50.6	9	17	270	0.00	29.878 
15:20	74.0	74.0	74.0	48	53.0	7	18	270	0.00	29.878 
15:25	74.7	74.7	74.7	45	51.9	7	16	270	0.00	29.878 
15:30	75.1	75.1	77.6	42	50.4	8	19	270	0.00	29.877 
15:35	74.9	74.9	74.9	43	50.9	10	24	270	0.00	29.877 
15:40	75.8	75.8	77.8	43	51.7	8	21	270	0.00	29.877 
15:45	76.0	76.0	77.9	43	51.9	8	18	270	0.00	29.874 
15:50	75.8	75.8	77.8	42	51.1	8	19	270	0.00	29.874 
15:55	75.8	75.8	77.8	42	51.1	8	26	270	0.00	29.874 
16:00	76.0	76.0	77.9	42	51.2	9	26	270	0.00	29.877 
16:05	76.3	76.3	78.0	41	50.8	9	17	270	0.00	29.877 
16:10	75.8	75.8	77.8	43	51.7	6	14	270	0.00	29.877 
16:15	75.8	75.8	77.9	44	52.3	8	20	270	0.00	29.886 
16:20	75.8	75.8	77.9	44	52.3	6	17	270	0.00	29.886 
16:25	75.1	75.1	77.6	41	49.8	7	16	270	0.00	29.886 
16:30	75.1	75.1	77.6	43	51.1	6	21	270	0.00	29.888 
16:35	75.8	75.8	77.8	42	51.1	6	13	270	0.00	29.888 
16:40	75.8	75.8	77.8	42	51.1	6	15	270	0.00	29.888 
16:45	75.6	75.6	77.7	42	50.9	5	12	270	0.00	29.893 
16:50	75.8	75.8	77.8	43	51.7	8	22	270	0.00	29.893 
16:55	75.8	75.8	77.7	40	49.7	8	19	270	0.00	29.893 
17:00	75.1	75.1	77.6	42	50.4	5	12	270	0.00	29.896 
17:05	75.1	75.1	77.6	41	49.8	5	14	270	0.00	29.896 
17:10	75.3	75.3	77.6	41	50.0	6	15	270	0.00	29.896 
17:15	75.6	75.6	77.7	41	50.2	5	12	270	0.00	29.901 
17:20	76.0	76.0	77.8	40	49.9	6	17	270	0.00	29.901 
17:25	76.0	76.0	77.9	41	50.6	5	11	270	0.00	29.901 
17:30	76.3	76.3	77.9	40	50.2	5	12	270	0.00	29.902 
17:35	76.5	76.5	77.9	38	49.0	6	15	270	0.00	29.902 
17:40	76.3	76.3	77.8	38	48.8	7	13	270	0.00	29.902 
17:45	76.1	76.1	77.8	39	49.3	6	14	270	0.00	29.906 
17:50	75.8	75.8	77.7	38	48.4	6	17	270	0.00	29.906 
17:55	75.6	75.6	77.6	39	48.9	6	15	270	0.00	29.906 
18:00	75.4	75.4	77.6	39	48.7	7	16	270	0.00	29.908 
18:05	75.6	75.6	77.6	39	48.9	6	13	270	0.00	29.908 
18:10	75.6	75.6	77.7	40	49.6	5	12	270	0.00	29.908 
18:15	75.4	75.4	77.6	40	49.4	5	12	270	0.00	29.918 
18:20	75.4	75.4	77.6	39	48.7	5	13	270	0.00	29.918 
18:25	75.3	75.3	77.6	41	50.0	4	8	270	0.00	29.918 
18:30	75.1	75.1	77.5	40	49.1	5	12	270	0.00	29.926 
18:35	74.6	74.6	74.6	43	50.6	4	12	270	0.00	29.926 
18:40	74.0	74.0	74.0	46	51.9	3	9	338	0.00	29.926 
18:45	73.3	73.3	73.3	47	51.8	3	12	315	0.00	29.937 
18:50	72.8	72.8	72.8	46	50.8	4	11	315	0.00	29.937 
18:55	72.8	72.8	72.8	47	51.4	3	7	315	0.00	29.937 
19:00	72.5	72.5	72.5	47	51.1	3	7	315	0.00	29.947 
19:05	72.3	72.3	72.3	48	51.5	3	7	315	0.00	29.947 
19:10	72.0	72.0	72.0	48	51.2	4	9	270	0.00	29.947 
19:15	71.6	71.6	71.6	49	51.4	3	8	292	0.00	29.954 
19:20	71.3	71.3	71.3	49	51.1	3	7	315	0.00	29.954 
19:25	70.9	70.9	70.9	49	50.8	3	7	315	0.00	29.954 
19:30	70.8	70.8	70.8	49	50.7	2	4	315	0.00	29.958 
19:35	70.6	70.6	70.6	48	49.9	3	7	338	0.00	29.958 
19:40	70.3	70.3	70.3	49	50.2	2	4	270	0.00	29.958 
19:45	69.9	69.9	69.9	49	49.9	1	3	270	0.00	29.967 
19:50	69.8	69.8	69.8	50	50.3	2	4	338	0.00	29.967 
19:55	69.6	69.6	69.6	50	50.1	2	5	292	0.00	29.967 
20:00	69.3	69.3	69.3	51	50.4	1	5	292	0.00	29.970 
20:05	68.9	68.9	68.9	51	50.0	1	3	270	0.00	29.970 
20:10	68.6	68.6	68.6	52	50.3	1	4	338	0.00	29.970 
20:15	68.4	68.4	68.4	52	50.1	1	3	270	0.00	29.973 
20:20	68.1	68.1	68.1	52	49.8	1	4	338	0.00	29.973 
20:25	67.8	67.8	67.8	53	50.0	1	3	292	0.00	29.973 
20:30	67.3	67.3	67.3	53	49.6	0	1	292	0.00	29.976 
20:35	66.9	66.9	66.9	54	49.7	0	1	292	0.00	29.976 
20:40	66.6	66.6	66.6	54	49.4	0	0	---	0.00	29.976 
20:45	66.1	66.1	66.1	55	49.5	0	0	---	0.00	29.981 
20:50	65.6	65.6	65.6	56	49.5	0	0	---	0.00	29.981 
20:55	65.0	65.0	65.0	57	49.4	0	0	---	0.00	29.981 
21:00	64.5	64.5	64.5	58	49.4	0	0	---	0.00	29.988 
21:05	63.9	63.9	63.9	59	49.3	0	0	---	0.00	29.988 
21:10	63.2	63.2	63.2	60	49.1	0	0	---	0.00	29.988 
21:15	62.6	62.6	62.6	61	49.0	0	0	---	0.00	29.998 
21:20	62.0	62.0	62.0	63	49.3	0	0	---	0.00	29.998 
21:25	61.3	61.3	61.3	64	49.0	0	0	---	0.00	29.998 
21:30	60.7	60.7	60.7	66	49.3	0	0	---	0.00	30.007 
21:35	60.1	60.1	60.1	68	49.5	0	0	---	0.00	30.007 
21:40	59.6	59.6	59.6	68	49.0	0	0	---	0.00	30.007 
21:45	59.2	59.2	59.2	69	49.0	0	0	---	0.00	30.011 
21:50	58.7	58.7	58.7	70	48.9	0	0	---	0.00	30.011 
21:55	58.3	58.3	58.3	70	48.6	0	0	---	0.00	30.011 
22:00	58.1	58.1	58.1	72	49.1	0	0	---	0.00	30.017 
22:05	58.0	58.0	58.0	73	49.4	0	0	---	0.00	30.017 
22:10	57.8	57.8	57.8	73	49.2	0	0	---	0.00	30.017 
22:15	57.5	57.5	57.5	73	48.9	0	0	---	0.00	30.017 
22:20	57.2	57.2	57.2	74	49.0	0	0	---	0.00	30.017 
22:25	57.0	57.0	57.0	74	48.8	0	0	---	0.00	30.017 
22:30	56.9	56.9	56.9	75	49.1	0	0	---	0.00	30.022 
22:35	56.6	56.6	56.6	75	48.8	0	0	---	0.00	30.022 
22:40	56.3	56.3	56.3	76	48.8	0	0	---	0.00	30.022 
22:45	56.0	56.0	56.0	76	48.5	0	0	---	0.00	30.024 
22:50	55.7	55.7	55.7	77	48.6	0	0	---	0.00	30.024 
22:55	55.6	55.6	55.6	78	48.8	0	0	---	0.00	30.024 
23:00	55.3	55.3	55.3	78	48.6	0	0	---	0.00	30.026 
23:05	55.1	55.1	55.1	79	48.7	0	0	---	0.00	30.026 
23:10	55.1	55.1	55.1	80	49.0	0	0	---	0.00	30.026 
23:15	55.0	55.0	55.0	80	48.9	0	0	---	0.00	30.025 
23:20	55.0	55.0	55.0	80	48.9	0	0	---	0.00	30.025 
23:25	54.8	54.8	54.8	80	48.7	0	0	---	0.00	30.025 
23:30	54.8	54.8	54.8	81	49.1	0	0	---	0.00	30.030 
23:35	55.0	55.0	55.0	80	48.9	0	0	---	0.00	30.030 
23:40	55.1	55.1	55.1	80	49.0	0	0	---	0.00	30.030 
23:45	55.1	55.1	55.1	80	49.0	0	0	---	0.00	30.033 
23:50	55.1	55.1	55.1	80	49.0	0	0	---	0.00	30.033 
23:55	55.0	55.0	55.0	80	48.9	0	1	292	0.00	30.033 

CoCoRaHS
IN-AL-39
A2 Web Hosting
Creative Commons License
GoDaddy
Look for:

loaded 2017-10-18 22:13:48 • last modified 2010-11-18 10:43:29
Privacy PolicyDisclaimer
• wx.awcolley.com is powered by PmWiki v.2002016 •
• all content (unless otherwise noted) © 2017 A W Colley